sensor_id;sensor_type;location;lat;lon;timestamp;P1;durP1;ratioP1;P2;durP2;ratioP2
63807;SDS011;49961;43.970;22.868;2023-01-30T00:00:39;11.50;;;7.83;;
63807;SDS011;49961;43.970;22.868;2023-01-30T00:01:39;12.47;;;8.17;;
63807;SDS011;49961;43.970;22.868;2023-01-30T00:02:41;11.10;;;7.55;;
63807;SDS011;49961;43.970;22.868;2023-01-30T00:03:42;10.63;;;7.37;;
63807;SDS011;49961;43.970;22.868;2023-01-30T00:04:42;11.70;;;7.70;;
63807;SDS011;49961;43.970;22.868;2023-01-30T00:05:43;12.87;;;8.67;;
63807;SDS011;49961;43.970;22.868;2023-01-30T00:06:43;11.67;;;8.30;;
63807;SDS011;49961;43.970;22.868;2023-01-30T00:07:45;12.67;;;8.10;;
63807;SDS011;49961;43.970;22.868;2023-01-30T00:08:45;10.52;;;7.63;;
63807;SDS011;49961;43.970;22.868;2023-01-30T00:09:46;10.40;;;7.90;;
63807;SDS011;49961;43.970;22.868;2023-01-30T00:10:47;12.17;;;8.27;;
63807;SDS011;49961;43.970;22.868;2023-01-30T00:11:47;11.60;;;7.90;;
63807;SDS011;49961;43.970;22.868;2023-01-30T00:12:48;14.90;;;8.57;;
63807;SDS011;49961;43.970;22.868;2023-01-30T00:13:48;10.97;;;7.77;;
63807;SDS011;49961;43.970;22.868;2023-01-30T00:14:50;10.98;;;7.70;;
63807;SDS011;49961;43.970;22.868;2023-01-30T00:15:50;12.57;;;9.10;;
63807;SDS011;49961;43.970;22.868;2023-01-30T00:16:51;11.57;;;7.93;;
63807;SDS011;49961;43.970;22.868;2023-01-30T00:17:51;11.00;;;7.73;;
63807;SDS011;49961;43.970;22.868;2023-01-30T00:18:51;10.90;;;8.00;;
63807;SDS011;49961;43.970;22.868;2023-01-30T00:19:52;10.80;;;7.87;;
63807;SDS011;49961;43.970;22.868;2023-01-30T00:20:56;11.13;;;8.13;;
63807;SDS011;49961;43.970;22.868;2023-01-30T00:21:57;12.43;;;7.22;;
63807;SDS011;49961;43.970;22.868;2023-01-30T00:22:58;13.03;;;8.43;;
63807;SDS011;49961;43.970;22.868;2023-01-30T00:23:58;12.00;;;8.03;;
63807;SDS011;49961;43.970;22.868;2023-01-30T00:24:59;10.70;;;7.85;;
63807;SDS011;49961;43.970;22.868;2023-01-30T00:26:00;11.00;;;7.93;;
63807;SDS011;49961;43.970;22.868;2023-01-30T00:27:01;10.43;;;7.77;;
63807;SDS011;49961;43.970;22.868;2023-01-30T00:28:01;12.37;;;7.80;;
63807;SDS011;49961;43.970;22.868;2023-01-30T00:29:02;10.40;;;7.60;;
63807;SDS011;49961;43.970;22.868;2023-01-30T00:30:02;11.30;;;7.77;;
63807;SDS011;49961;43.970;22.868;2023-01-30T00:31:05;13.55;;;8.68;;
63807;SDS011;49961;43.970;22.868;2023-01-30T00:32:06;12.80;;;7.93;;
63807;SDS011;49961;43.970;22.868;2023-01-30T00:33:06;10.83;;;7.97;;
63807;SDS011;49961;43.970;22.868;2023-01-30T00:34:08;11.02;;;7.95;;
63807;SDS011;49961;43.970;22.868;2023-01-30T00:35:08;10.43;;;7.90;;
63807;SDS011;49961;43.970;22.868;2023-01-30T00:36:09;13.20;;;8.17;;
63807;SDS011;49961;43.970;22.868;2023-01-30T00:37:10;11.77;;;8.13;;
63807;SDS011;49961;43.970;22.868;2023-01-30T00:38:10;12.13;;;7.80;;
63807;SDS011;49961;43.970;22.868;2023-01-30T00:39:11;10.87;;;7.73;;
63807;SDS011;49961;43.970;22.868;2023-01-30T00:40:11;11.17;;;7.90;;
63807;SDS011;49961;43.970;22.868;2023-01-30T00:41:12;11.03;;;7.77;;
63807;SDS011;49961;43.970;22.868;2023-01-30T00:42:14;11.18;;;7.82;;
63807;SDS011;49961;43.970;22.868;2023-01-30T00:43:33;12.15;;;7.90;;
63807;SDS011;49961;43.970;22.868;2023-01-30T00:44:51;12.05;;;7.75;;
63807;SDS011;49961;43.970;22.868;2023-01-30T00:46:12;11.85;;;7.90;;
63807;SDS011;49961;43.970;22.868;2023-01-30T00:47:37;11.75;;;7.97;;
63807;SDS011;49961;43.970;22.868;2023-01-30T00:48:37;11.43;;;7.20;;
63807;SDS011;49961;43.970;22.868;2023-01-30T00:49:38;10.20;;;7.13;;
63807;SDS011;49961;43.970;22.868;2023-01-30T00:50:38;12.50;;;7.37;;
63807;SDS011;49961;43.970;22.868;2023-01-30T00:51:41;11.05;;;7.65;;
63807;SDS011;49961;43.970;22.868;2023-01-30T00:52:42;11.87;;;8.47;;
63807;SDS011;49961;43.970;22.868;2023-01-30T00:53:42;12.00;;;8.07;;
63807;SDS011;49961;43.970;22.868;2023-01-30T00:54:43;11.73;;;7.70;;
63807;SDS011;49961;43.970;22.868;2023-01-30T00:55:43;13.50;;;8.30;;
63807;SDS011;49961;43.970;22.868;2023-01-30T00:56:44;12.40;;;8.07;;
63807;SDS011;49961;43.970;22.868;2023-01-30T00:57:45;10.10;;;7.73;;
63807;SDS011;49961;43.970;22.868;2023-01-30T00:58:45;11.23;;;7.90;;
63807;SDS011;49961;43.970;22.868;2023-01-30T00:59:45;11.97;;;7.77;;
63807;SDS011;49961;43.970;22.868;2023-01-30T01:00:46;12.30;;;8.50;;
63807;SDS011;49961;43.970;22.868;2023-01-30T01:01:46;11.60;;;7.97;;
63807;SDS011;49961;43.970;22.868;2023-01-30T01:02:47;10.47;;;7.47;;
63807;SDS011;49961;43.970;22.868;2023-01-30T01:03:47;10.87;;;7.50;;
63807;SDS011;49961;43.970;22.868;2023-01-30T01:04:47;11.40;;;8.40;;
63807;SDS011;49961;43.970;22.868;2023-01-30T01:05:48;11.27;;;7.83;;
63807;SDS011;49961;43.970;22.868;2023-01-30T01:06:48;10.83;;;7.97;;
63807;SDS011;49961;43.970;22.868;2023-01-30T01:07:49;11.20;;;8.17;;
63807;SDS011;49961;43.970;22.868;2023-01-30T01:08:49;11.80;;;7.80;;
63807;SDS011;49961;43.970;22.868;2023-01-30T01:09:50;11.20;;;7.50;;
63807;SDS011;49961;43.970;22.868;2023-01-30T01:10:50;10.57;;;7.83;;
63807;SDS011;49961;43.970;22.868;2023-01-30T01:11:50;10.23;;;7.33;;
63807;SDS011;49961;43.970;22.868;2023-01-30T01:12:51;11.13;;;7.33;;
63807;SDS011;49961;43.970;22.868;2023-01-30T01:13:52;12.03;;;8.43;;
63807;SDS011;49961;43.970;22.868;2023-01-30T01:14:53;12.25;;;8.20;;
63807;SDS011;49961;43.970;22.868;2023-01-30T01:15:54;9.53;;;7.40;;
63807;SDS011;49961;43.970;22.868;2023-01-30T01:16:54;11.47;;;7.50;;
63807;SDS011;49961;43.970;22.868;2023-01-30T01:17:54;10.87;;;7.83;;
63807;SDS011;49961;43.970;22.868;2023-01-30T01:18:55;11.77;;;8.23;;
63807;SDS011;49961;43.970;22.868;2023-01-30T01:19:55;12.00;;;7.87;;
63807;SDS011;49961;43.970;22.868;2023-01-30T01:20:56;10.57;;;7.67;;
63807;SDS011;49961;43.970;22.868;2023-01-30T01:21:56;10.73;;;7.07;;
63807;SDS011;49961;43.970;22.868;2023-01-30T01:22:57;11.60;;;7.47;;
63807;SDS011;49961;43.970;22.868;2023-01-30T01:23:58;13.47;;;7.90;;
63807;SDS011;49961;43.970;22.868;2023-01-30T01:24:59;12.45;;;8.32;;
63807;SDS011;49961;43.970;22.868;2023-01-30T01:26:02;11.50;;;7.90;;
63807;SDS011;49961;43.970;22.868;2023-01-30T01:27:03;11.55;;;7.85;;
63807;SDS011;49961;43.970;22.868;2023-01-30T01:28:03;11.30;;;8.07;;
63807;SDS011;49961;43.970;22.868;2023-01-30T01:29:04;10.97;;;7.93;;
63807;SDS011;49961;43.970;22.868;2023-01-30T01:30:05;11.70;;;8.13;;
63807;SDS011;49961;43.970;22.868;2023-01-30T01:31:07;10.18;;;7.20;;
63807;SDS011;49961;43.970;22.868;2023-01-30T01:32:08;10.95;;;7.55;;
63807;SDS011;49961;43.970;22.868;2023-01-30T01:33:09;13.80;;;8.17;;
63807;SDS011;49961;43.970;22.868;2023-01-30T01:34:09;11.07;;;7.23;;
63807;SDS011;49961;43.970;22.868;2023-01-30T01:35:10;9.40;;;6.90;;
63807;SDS011;49961;43.970;22.868;2023-01-30T01:36:11;10.20;;;7.50;;
63807;SDS011;49961;43.970;22.868;2023-01-30T01:37:11;11.20;;;8.17;;
63807;SDS011;49961;43.970;22.868;2023-01-30T01:38:12;10.80;;;7.57;;
63807;SDS011;49961;43.970;22.868;2023-01-30T01:39:12;11.37;;;7.87;;
63807;SDS011;49961;43.970;22.868;2023-01-30T01:40:17;11.83;;;7.70;;
63807;SDS011;49961;43.970;22.868;2023-01-30T01:41:37;10.40;;;7.53;;
63807;SDS011;49961;43.970;22.868;2023-01-30T01:42:37;10.07;;;7.23;;
63807;SDS011;49961;43.970;22.868;2023-01-30T01:43:57;9.90;;;7.53;;
63807;SDS011;49961;43.970;22.868;2023-01-30T01:46:27;12.82;;;8.10;;
63807;SDS011;49961;43.970;22.868;2023-01-30T01:47:31;11.73;;;7.68;;
63807;SDS011;49961;43.970;22.868;2023-01-30T01:48:35;11.13;;;7.15;;
63807;SDS011;49961;43.970;22.868;2023-01-30T01:49:40;9.68;;;7.03;;
63807;SDS011;49961;43.970;22.868;2023-01-30T01:52:00;10.50;;;7.30;;
63807;SDS011;49961;43.970;22.868;2023-01-30T01:53:05;10.13;;;7.35;;
63807;SDS011;49961;43.970;22.868;2023-01-30T01:54:08;9.85;;;6.63;;
63807;SDS011;49961;43.970;22.868;2023-01-30T01:55:13;9.13;;;6.80;;
63807;SDS011;49961;43.970;22.868;2023-01-30T01:56:15;8.98;;;6.47;;
63807;SDS011;49961;43.970;22.868;2023-01-30T01:57:25;9.13;;;6.90;;
63807;SDS011;49961;43.970;22.868;2023-01-30T01:58:38;12.57;;;6.90;;
63807;SDS011;49961;43.970;22.868;2023-01-30T01:59:45;9.95;;;6.75;;
63807;SDS011;49961;43.970;22.868;2023-01-30T02:00:50;11.13;;;7.32;;
63807;SDS011;49961;43.970;22.868;2023-01-30T02:01:52;11.98;;;6.88;;
63807;SDS011;49961;43.970;22.868;2023-01-30T02:02:58;9.70;;;6.72;;
63807;SDS011;49961;43.970;22.868;2023-01-30T02:04:02;9.32;;;6.40;;
63807;SDS011;49961;43.970;22.868;2023-01-30T02:05:05;9.65;;;6.50;;
63807;SDS011;49961;43.970;22.868;2023-01-30T02:06:06;10.50;;;6.97;;
63807;SDS011;49961;43.970;22.868;2023-01-30T02:07:07;10.32;;;6.63;;
63807;SDS011;49961;43.970;22.868;2023-01-30T02:08:21;8.63;;;6.23;;
63807;SDS011;49961;43.970;22.868;2023-01-30T02:09:28;10.15;;;6.40;;
63807;SDS011;49961;43.970;22.868;2023-01-30T02:10:47;9.50;;;5.87;;
63807;SDS011;49961;43.970;22.868;2023-01-30T02:11:55;8.65;;;5.10;;
63807;SDS011;49961;43.970;22.868;2023-01-30T02:12:58;9.10;;;6.00;;
63807;SDS011;49961;43.970;22.868;2023-01-30T02:13:58;9.37;;;5.73;;
63807;SDS011;49961;43.970;22.868;2023-01-30T02:15:01;8.45;;;5.70;;
63807;SDS011;49961;43.970;22.868;2023-01-30T02:16:03;9.27;;;5.88;;
63807;SDS011;49961;43.970;22.868;2023-01-30T02:17:05;9.93;;;5.78;;
63807;SDS011;49961;43.970;22.868;2023-01-30T02:18:06;8.83;;;5.80;;
63807;SDS011;49961;43.970;22.868;2023-01-30T02:19:08;8.53;;;5.60;;
63807;SDS011;49961;43.970;22.868;2023-01-30T02:21:33;9.30;;;6.00;;
63807;SDS011;49961;43.970;22.868;2023-01-30T02:23:10;8.32;;;6.20;;
63807;SDS011;49961;43.970;22.868;2023-01-30T02:27:16;9.57;;;6.13;;
63807;SDS011;49961;43.970;22.868;2023-01-30T02:28:34;7.50;;;5.03;;
63807;SDS011;49961;43.970;22.868;2023-01-30T02:36:45;10.98;;;5.80;;
63807;SDS011;49961;43.970;22.868;2023-01-30T02:38:07;9.68;;;5.68;;
63807;SDS011;49961;43.970;22.868;2023-01-30T02:39:31;9.90;;;6.75;;
63807;SDS011;49961;43.970;22.868;2023-01-30T02:41:07;9.88;;;6.22;;
63807;SDS011;49961;43.970;22.868;2023-01-30T02:42:35;10.05;;;6.13;;
63807;SDS011;49961;43.970;22.868;2023-01-30T02:47:03;8.73;;;6.30;;
63807;SDS011;49961;43.970;22.868;2023-01-30T02:48:11;10.98;;;5.93;;
63807;SDS011;49961;43.970;22.868;2023-01-30T02:49:27;9.27;;;6.18;;
63807;SDS011;49961;43.970;22.868;2023-01-30T02:50:39;9.00;;;5.82;;
63807;SDS011;49961;43.970;22.868;2023-01-30T02:51:46;9.10;;;6.07;;
63807;SDS011;49961;43.970;22.868;2023-01-30T02:52:49;9.65;;;6.65;;
63807;SDS011;49961;43.970;22.868;2023-01-30T02:53:51;9.98;;;6.57;;
63807;SDS011;49961;43.970;22.868;2023-01-30T02:54:53;8.63;;;5.78;;
63807;SDS011;49961;43.970;22.868;2023-01-30T02:55:53;9.77;;;6.40;;
63807;SDS011;49961;43.970;22.868;2023-01-30T02:56:56;9.80;;;6.60;;
63807;SDS011;49961;43.970;22.868;2023-01-30T02:57:58;9.32;;;6.53;;
63807;SDS011;49961;43.970;22.868;2023-01-30T02:59:00;8.98;;;6.65;;
63807;SDS011;49961;43.970;22.868;2023-01-30T03:00:06;9.20;;;6.93;;
63807;SDS011;49961;43.970;22.868;2023-01-30T03:01:14;10.15;;;6.85;;
63807;SDS011;49961;43.970;22.868;2023-01-30T03:04:13;10.48;;;6.70;;
63807;SDS011;49961;43.970;22.868;2023-01-30T03:08:54;9.40;;;6.88;;
63807;SDS011;49961;43.970;22.868;2023-01-30T03:10:21;9.73;;;6.72;;
63807;SDS011;49961;43.970;22.868;2023-01-30T03:11:23;10.85;;;6.65;;
63807;SDS011;49961;43.970;22.868;2023-01-30T03:13:43;9.27;;;6.50;;
63807;SDS011;49961;43.970;22.868;2023-01-30T03:15:39;8.52;;;6.10;;
63807;SDS011;49961;43.970;22.868;2023-01-30T03:16:37;9.32;;;6.20;;
63807;SDS011;49961;43.970;22.868;2023-01-30T03:17:40;9.90;;;6.88;;
63807;SDS011;49961;43.970;22.868;2023-01-30T03:18:43;8.95;;;6.53;;
63807;SDS011;49961;43.970;22.868;2023-01-30T03:19:45;8.95;;;7.00;;
63807;SDS011;49961;43.970;22.868;2023-01-30T03:20:46;9.63;;;6.63;;
63807;SDS011;49961;43.970;22.868;2023-01-30T03:21:46;9.60;;;6.87;;
63807;SDS011;49961;43.970;22.868;2023-01-30T03:22:47;9.37;;;6.90;;
63807;SDS011;49961;43.970;22.868;2023-01-30T03:23:47;10.50;;;7.10;;
63807;SDS011;49961;43.970;22.868;2023-01-30T03:24:48;11.27;;;6.77;;
63807;SDS011;49961;43.970;22.868;2023-01-30T03:25:52;11.00;;;7.80;;
63807;SDS011;49961;43.970;22.868;2023-01-30T03:27:05;9.23;;;6.60;;
63807;SDS011;49961;43.970;22.868;2023-01-30T03:28:09;9.65;;;6.80;;
63807;SDS011;49961;43.970;22.868;2023-01-30T03:29:11;10.07;;;7.20;;
63807;SDS011;49961;43.970;22.868;2023-01-30T03:30:12;9.93;;;7.10;;
63807;SDS011;49961;43.970;22.868;2023-01-30T03:31:12;9.93;;;7.20;;
63807;SDS011;49961;43.970;22.868;2023-01-30T03:32:13;9.30;;;6.87;;
63807;SDS011;49961;43.970;22.868;2023-01-30T03:33:13;10.90;;;6.93;;
63807;SDS011;49961;43.970;22.868;2023-01-30T03:34:13;10.13;;;7.17;;
63807;SDS011;49961;43.970;22.868;2023-01-30T03:35:14;11.67;;;8.00;;
63807;SDS011;49961;43.970;22.868;2023-01-30T03:36:16;11.15;;;7.10;;
63807;SDS011;49961;43.970;22.868;2023-01-30T03:37:17;10.17;;;7.17;;
63807;SDS011;49961;43.970;22.868;2023-01-30T03:38:17;10.27;;;7.10;;
63807;SDS011;49961;43.970;22.868;2023-01-30T03:39:18;12.25;;;7.82;;
63807;SDS011;49961;43.970;22.868;2023-01-30T03:40:19;9.63;;;7.10;;
63807;SDS011;49961;43.970;22.868;2023-01-30T03:41:19;10.23;;;7.57;;
63807;SDS011;49961;43.970;22.868;2023-01-30T03:42:20;9.93;;;7.13;;
63807;SDS011;49961;43.970;22.868;2023-01-30T03:43:20;9.63;;;7.30;;
63807;SDS011;49961;43.970;22.868;2023-01-30T03:44:21;10.47;;;7.73;;
63807;SDS011;49961;43.970;22.868;2023-01-30T03:45:21;9.63;;;7.23;;
63807;SDS011;49961;43.970;22.868;2023-01-30T03:46:21;10.80;;;7.40;;
63807;SDS011;49961;43.970;22.868;2023-01-30T03:47:22;10.37;;;7.37;;
63807;SDS011;49961;43.970;22.868;2023-01-30T03:48:23;10.33;;;7.30;;
63807;SDS011;49961;43.970;22.868;2023-01-30T03:49:23;10.20;;;7.30;;
63807;SDS011;49961;43.970;22.868;2023-01-30T03:50:23;11.07;;;7.93;;
63807;SDS011;49961;43.970;22.868;2023-01-30T03:51:24;11.63;;;7.83;;
63807;SDS011;49961;43.970;22.868;2023-01-30T03:52:24;10.70;;;7.97;;
63807;SDS011;49961;43.970;22.868;2023-01-30T03:53:25;10.27;;;7.50;;
63807;SDS011;49961;43.970;22.868;2023-01-30T03:54:25;10.57;;;7.70;;
63807;SDS011;49961;43.970;22.868;2023-01-30T03:55:26;10.63;;;7.57;;
63807;SDS011;49961;43.970;22.868;2023-01-30T03:56:26;10.80;;;7.53;;
63807;SDS011;49961;43.970;22.868;2023-01-30T03:57:26;9.67;;;7.10;;
63807;SDS011;49961;43.970;22.868;2023-01-30T03:58:27;11.83;;;8.10;;
63807;SDS011;49961;43.970;22.868;2023-01-30T03:59:27;11.53;;;8.30;;
63807;SDS011;49961;43.970;22.868;2023-01-30T04:00:28;11.37;;;7.93;;
63807;SDS011;49961;43.970;22.868;2023-01-30T04:01:28;10.40;;;7.43;;
63807;SDS011;49961;43.970;22.868;2023-01-30T04:02:28;12.53;;;7.57;;
63807;SDS011;49961;43.970;22.868;2023-01-30T04:03:29;10.33;;;7.37;;
63807;SDS011;49961;43.970;22.868;2023-01-30T04:04:29;11.67;;;7.70;;
63807;SDS011;49961;43.970;22.868;2023-01-30T04:05:30;10.37;;;7.43;;
63807;SDS011;49961;43.970;22.868;2023-01-30T04:06:31;12.03;;;7.53;;
63807;SDS011;49961;43.970;22.868;2023-01-30T04:07:31;11.10;;;7.07;;
63807;SDS011;49961;43.970;22.868;2023-01-30T04:08:32;10.07;;;7.40;;
63807;SDS011;49961;43.970;22.868;2023-01-30T04:09:32;10.67;;;7.53;;
63807;SDS011;49961;43.970;22.868;2023-01-30T04:10:32;10.43;;;7.40;;
63807;SDS011;49961;43.970;22.868;2023-01-30T04:11:33;10.83;;;7.47;;
63807;SDS011;49961;43.970;22.868;2023-01-30T04:12:33;10.60;;;7.27;;
63807;SDS011;49961;43.970;22.868;2023-01-30T04:13:34;10.83;;;7.77;;
63807;SDS011;49961;43.970;22.868;2023-01-30T04:14:34;11.53;;;7.60;;
63807;SDS011;49961;43.970;22.868;2023-01-30T04:15:34;10.43;;;7.70;;
63807;SDS011;49961;43.970;22.868;2023-01-30T04:16:35;10.50;;;7.47;;
63807;SDS011;49961;43.970;22.868;2023-01-30T04:17:36;11.77;;;8.13;;
63807;SDS011;49961;43.970;22.868;2023-01-30T04:18:36;9.97;;;7.37;;
63807;SDS011;49961;43.970;22.868;2023-01-30T04:19:37;10.67;;;7.37;;
63807;SDS011;49961;43.970;22.868;2023-01-30T04:20:37;10.87;;;7.70;;
63807;SDS011;49961;43.970;22.868;2023-01-30T04:21:37;11.03;;;7.50;;
63807;SDS011;49961;43.970;22.868;2023-01-30T04:22:38;11.10;;;8.23;;
63807;SDS011;49961;43.970;22.868;2023-01-30T04:23:38;10.50;;;7.83;;
63807;SDS011;49961;43.970;22.868;2023-01-30T04:24:39;11.60;;;7.97;;
63807;SDS011;49961;43.970;22.868;2023-01-30T04:25:39;13.80;;;8.80;;
63807;SDS011;49961;43.970;22.868;2023-01-30T04:26:40;12.30;;;8.63;;
63807;SDS011;49961;43.970;22.868;2023-01-30T04:27:40;13.10;;;9.10;;
63807;SDS011;49961;43.970;22.868;2023-01-30T04:28:41;12.40;;;8.97;;
63807;SDS011;49961;43.970;22.868;2023-01-30T04:29:43;14.95;;;9.73;;
63807;SDS011;49961;43.970;22.868;2023-01-30T04:30:43;13.33;;;9.37;;
63807;SDS011;49961;43.970;22.868;2023-01-30T04:31:44;13.27;;;9.37;;
63807;SDS011;49961;43.970;22.868;2023-01-30T04:32:44;12.00;;;9.20;;
63807;SDS011;49961;43.970;22.868;2023-01-30T04:33:45;14.47;;;9.50;;
63807;SDS011;49961;43.970;22.868;2023-01-30T04:34:45;14.93;;;10.00;;
63807;SDS011;49961;43.970;22.868;2023-01-30T04:36:53;12.60;;;9.60;;
63807;SDS011;49961;43.970;22.868;2023-01-30T04:37:53;14.33;;;9.40;;
63807;SDS011;49961;43.970;22.868;2023-01-30T04:38:54;12.67;;;9.40;;
63807;SDS011;49961;43.970;22.868;2023-01-30T04:39:56;14.13;;;10.20;;
63807;SDS011;49961;43.970;22.868;2023-01-30T04:40:57;16.37;;;10.10;;
63807;SDS011;49961;43.970;22.868;2023-01-30T04:41:58;13.43;;;10.02;;
63807;SDS011;49961;43.970;22.868;2023-01-30T04:42:58;13.17;;;9.83;;
63807;SDS011;49961;43.970;22.868;2023-01-30T04:43:58;13.87;;;9.60;;
63807;SDS011;49961;43.970;22.868;2023-01-30T04:44:59;14.03;;;10.13;;
63807;SDS011;49961;43.970;22.868;2023-01-30T04:45:59;15.37;;;9.90;;
63807;SDS011;49961;43.970;22.868;2023-01-30T04:47:00;14.27;;;10.07;;
63807;SDS011;49961;43.970;22.868;2023-01-30T04:48:00;14.50;;;10.47;;
63807;SDS011;49961;43.970;22.868;2023-01-30T04:49:01;13.27;;;9.60;;
63807;SDS011;49961;43.970;22.868;2023-01-30T04:50:01;14.20;;;10.23;;
63807;SDS011;49961;43.970;22.868;2023-01-30T04:51:02;13.57;;;10.10;;
63807;SDS011;49961;43.970;22.868;2023-01-30T04:52:02;14.00;;;9.67;;
63807;SDS011;49961;43.970;22.868;2023-01-30T04:53:03;16.93;;;9.90;;
63807;SDS011;49961;43.970;22.868;2023-01-30T04:54:03;12.43;;;9.30;;
63807;SDS011;49961;43.970;22.868;2023-01-30T04:55:05;15.48;;;9.43;;
63807;SDS011;49961;43.970;22.868;2023-01-30T04:56:06;13.73;;;9.00;;
63807;SDS011;49961;43.970;22.868;2023-01-30T04:57:06;14.53;;;9.30;;
63807;SDS011;49961;43.970;22.868;2023-01-30T04:58:07;11.93;;;9.17;;
63807;SDS011;49961;43.970;22.868;2023-01-30T04:59:07;13.43;;;9.33;;
63807;SDS011;49961;43.970;22.868;2023-01-30T05:00:08;13.17;;;9.17;;
63807;SDS011;49961;43.970;22.868;2023-01-30T05:01:12;13.52;;;8.82;;
63807;SDS011;49961;43.970;22.868;2023-01-30T05:02:20;11.77;;;7.95;;
63807;SDS011;49961;43.970;22.868;2023-01-30T05:03:21;11.97;;;8.23;;
63807;SDS011;49961;43.970;22.868;2023-01-30T05:04:21;13.30;;;8.40;;
63807;SDS011;49961;43.970;22.868;2023-01-30T05:05:22;11.97;;;7.90;;
63807;SDS011;49961;43.970;22.868;2023-01-30T05:06:23;12.85;;;8.50;;
63807;SDS011;49961;43.970;22.868;2023-01-30T05:07:24;15.77;;;8.83;;
63807;SDS011;49961;43.970;22.868;2023-01-30T05:08:24;12.97;;;8.53;;
63807;SDS011;49961;43.970;22.868;2023-01-30T05:09:25;13.63;;;8.60;;
63807;SDS011;49961;43.970;22.868;2023-01-30T05:10:25;12.07;;;8.40;;
63807;SDS011;49961;43.970;22.868;2023-01-30T05:11:26;11.57;;;8.37;;
63807;SDS011;49961;43.970;22.868;2023-01-30T05:12:28;15.00;;;8.52;;
63807;SDS011;49961;43.970;22.868;2023-01-30T05:13:29;14.13;;;8.95;;
63807;SDS011;49961;43.970;22.868;2023-01-30T05:14:30;13.53;;;8.03;;
63807;SDS011;49961;43.970;22.868;2023-01-30T05:15:30;12.13;;;8.30;;
63807;SDS011;49961;43.970;22.868;2023-01-30T05:16:32;14.93;;;8.20;;
63807;SDS011;49961;43.970;22.868;2023-01-30T05:17:32;13.63;;;8.80;;
63807;SDS011;49961;43.970;22.868;2023-01-30T05:18:33;11.30;;;8.10;;
63807;SDS011;49961;43.970;22.868;2023-01-30T05:19:34;13.20;;;8.67;;
63807;SDS011;49961;43.970;22.868;2023-01-30T05:20:34;12.50;;;8.50;;
63807;SDS011;49961;43.970;22.868;2023-01-30T05:21:35;12.07;;;8.20;;
63807;SDS011;49961;43.970;22.868;2023-01-30T05:22:35;10.77;;;7.60;;
63807;SDS011;49961;43.970;22.868;2023-01-30T05:23:36;9.53;;;7.50;;
63807;SDS011;49961;43.970;22.868;2023-01-30T05:24:36;14.40;;;8.80;;
63807;SDS011;49961;43.970;22.868;2023-01-30T05:25:36;13.10;;;8.53;;
63807;SDS011;49961;43.970;22.868;2023-01-30T05:26:37;12.00;;;8.30;;
63807;SDS011;49961;43.970;22.868;2023-01-30T05:27:37;11.07;;;7.53;;
63807;SDS011;49961;43.970;22.868;2023-01-30T05:28:38;11.63;;;7.57;;
63807;SDS011;49961;43.970;22.868;2023-01-30T05:29:39;10.68;;;7.57;;
63807;SDS011;49961;43.970;22.868;2023-01-30T05:30:39;12.37;;;8.10;;
63807;SDS011;49961;43.970;22.868;2023-01-30T05:31:39;11.97;;;8.17;;
63807;SDS011;49961;43.970;22.868;2023-01-30T05:32:40;12.53;;;8.20;;
63807;SDS011;49961;43.970;22.868;2023-01-30T05:33:40;12.00;;;7.97;;
63807;SDS011;49961;43.970;22.868;2023-01-30T05:34:41;12.00;;;8.40;;
63807;SDS011;49961;43.970;22.868;2023-01-30T05:35:48;12.27;;;8.13;;
63807;SDS011;49961;43.970;22.868;2023-01-30T05:36:49;13.23;;;8.80;;
63807;SDS011;49961;43.970;22.868;2023-01-30T05:37:50;12.70;;;8.70;;
63807;SDS011;49961;43.970;22.868;2023-01-30T05:38:51;14.10;;;8.98;;
63807;SDS011;49961;43.970;22.868;2023-01-30T05:39:51;12.63;;;8.67;;
63807;SDS011;49961;43.970;22.868;2023-01-30T05:42:06;13.43;;;8.77;;
63807;SDS011;49961;43.970;22.868;2023-01-30T05:43:06;10.97;;;7.80;;
63807;SDS011;49961;43.970;22.868;2023-01-30T05:44:08;12.70;;;9.02;;
63807;SDS011;49961;43.970;22.868;2023-01-30T05:45:09;13.63;;;8.13;;
63807;SDS011;49961;43.970;22.868;2023-01-30T05:46:10;14.13;;;8.93;;
63807;SDS011;49961;43.970;22.868;2023-01-30T05:47:12;12.25;;;8.80;;
63807;SDS011;49961;43.970;22.868;2023-01-30T05:48:12;12.80;;;7.73;;
63807;SDS011;49961;43.970;22.868;2023-01-30T05:49:13;12.10;;;8.13;;
63807;SDS011;49961;43.970;22.868;2023-01-30T05:50:13;11.40;;;7.87;;
63807;SDS011;49961;43.970;22.868;2023-01-30T05:51:21;10.67;;;7.20;;
63807;SDS011;49961;43.970;22.868;2023-01-30T05:52:23;11.93;;;7.60;;
63807;SDS011;49961;43.970;22.868;2023-01-30T05:53:25;13.07;;;7.50;;
63807;SDS011;49961;43.970;22.868;2023-01-30T05:54:27;11.57;;;7.15;;
63807;SDS011;49961;43.970;22.868;2023-01-30T05:55:28;10.60;;;7.77;;
63807;SDS011;49961;43.970;22.868;2023-01-30T05:56:28;11.43;;;7.33;;
63807;SDS011;49961;43.970;22.868;2023-01-30T05:57:32;11.32;;;7.88;;
63807;SDS011;49961;43.970;22.868;2023-01-30T05:58:32;12.97;;;8.97;;
63807;SDS011;49961;43.970;22.868;2023-01-30T05:59:32;12.33;;;7.90;;
63807;SDS011;49961;43.970;22.868;2023-01-30T06:00:33;14.13;;;9.83;;
63807;SDS011;49961;43.970;22.868;2023-01-30T06:01:33;11.67;;;8.37;;
63807;SDS011;49961;43.970;22.868;2023-01-30T06:02:34;12.30;;;7.87;;
63807;SDS011;49961;43.970;22.868;2023-01-30T06:03:34;12.60;;;7.40;;
63807;SDS011;49961;43.970;22.868;2023-01-30T06:04:35;12.87;;;8.43;;
63807;SDS011;49961;43.970;22.868;2023-01-30T06:05:36;13.20;;;8.83;;
63807;SDS011;49961;43.970;22.868;2023-01-30T06:06:37;12.02;;;8.25;;
63807;SDS011;49961;43.970;22.868;2023-01-30T06:07:37;11.83;;;8.57;;
63807;SDS011;49961;43.970;22.868;2023-01-30T06:08:38;11.17;;;7.97;;
63807;SDS011;49961;43.970;22.868;2023-01-30T06:09:39;13.17;;;8.63;;
63807;SDS011;49961;43.970;22.868;2023-01-30T06:10:39;12.90;;;8.67;;
63807;SDS011;49961;43.970;22.868;2023-01-30T06:11:39;13.93;;;8.90;;
63807;SDS011;49961;43.970;22.868;2023-01-30T06:12:40;13.17;;;8.33;;
63807;SDS011;49961;43.970;22.868;2023-01-30T06:13:41;14.73;;;8.90;;
63807;SDS011;49961;43.970;22.868;2023-01-30T06:14:42;14.23;;;8.60;;
63807;SDS011;49961;43.970;22.868;2023-01-30T06:15:42;14.50;;;9.40;;
63807;SDS011;49961;43.970;22.868;2023-01-30T06:16:43;16.70;;;7.97;;
63807;SDS011;49961;43.970;22.868;2023-01-30T06:17:43;10.70;;;7.87;;
63807;SDS011;49961;43.970;22.868;2023-01-30T06:18:44;11.50;;;7.63;;
63807;SDS011;49961;43.970;22.868;2023-01-30T06:19:46;13.88;;;8.20;;
63807;SDS011;49961;43.970;22.868;2023-01-30T06:20:49;10.60;;;7.57;;
63807;SDS011;49961;43.970;22.868;2023-01-30T06:21:51;13.32;;;7.80;;
63807;SDS011;49961;43.970;22.868;2023-01-30T06:22:51;13.20;;;8.00;;
63807;SDS011;49961;43.970;22.868;2023-01-30T06:23:52;10.63;;;7.30;;
63807;SDS011;49961;43.970;22.868;2023-01-30T06:24:52;11.20;;;7.93;;
63807;SDS011;49961;43.970;22.868;2023-01-30T06:25:53;10.67;;;7.80;;
63807;SDS011;49961;43.970;22.868;2023-01-30T06:26:54;12.02;;;7.85;;
63807;SDS011;49961;43.970;22.868;2023-01-30T06:27:54;14.73;;;8.23;;
63807;SDS011;49961;43.970;22.868;2023-01-30T06:28:55;15.97;;;9.27;;
63807;SDS011;49961;43.970;22.868;2023-01-30T06:29:55;13.10;;;8.07;;
63807;SDS011;49961;43.970;22.868;2023-01-30T06:30:56;11.27;;;8.17;;
63807;SDS011;49961;43.970;22.868;2023-01-30T06:31:56;17.30;;;8.63;;
63807;SDS011;49961;43.970;22.868;2023-01-30T06:32:57;11.60;;;7.73;;